オークランド の空港の天気 - METARとTAF

オークランド国際空港 ( NZAA / AKL ) - ニュージーランド オークランド|オークランド
飛行場実況気象(Metar)
観測時間08/17 23:30 NZST (08/17 11:30 UTC)
風向・風速北 3m/s
視程10km以上
天気現象
少しの雲 雲底高度 3050m
気温11℃
湿度100%
気圧1012hPa
METARNZAA 171130Z AUTO 36005KT 300V030 9999 FEW100/// 11/11 Q1012 NOSIG
過去の天気等 Google飛行場航空写真 Wunderground天気予報

過去48時間のMETAR

飛行場予報(TAF)
発表時間: 8/17 23:01 NZST (8/17 11:01 UTC)
予報対象時間: 18日0時 NZST ~ 19日0時 NZST
風向・風速北東 3m/s
視程10km以上
天気現象弱いしゅう雨
少しの雲 雲底高度 760m
全天の4割程度の雲 雲底高度 910m
18日4時 NZST ~ 18日8時 NZST に一時的に
視程6000m
天気現象しゅう雨
18日5時 NZST ~ 18日7時 NZST に徐々に
風向・風速東南東 5m/s
18日8時 NZST ~ 18日10時 NZST に徐々に
風向・風速東南東 8m/s 瞬間風速 13m/s
18日16時 NZST ~ 18日18時 NZST に徐々に
風向・風速東南東 4m/s
TAF NZAA 171101Z 1712/1812 05005KT 9999 -SHRA FEW025 SCT030
TEMPO 1716/1720 6000 SHRA
BECMG 1717/1719 12010KT
BECMG 1720/1722 12015G25KT
BECMG 1804/1806 12008KT